Latest Weather Observations for Parawa West

IDS60801

Issued at 7:04 pm CDT Sunday 21 December 2014 (issued every 30 minutes, with the page automatically refreshed every 10 minutes)

About weather observations | Map of weather stations | Latest weather observations for SA | Other Formats
Station Details ID: 023875 Name: SECOND VALLEY FOREST AWS Lat: -35.57 Lon: 138.29 Height: 341.0 m
Data from the previous 72 hours. | See also: Recent months at Parawa West
Date/Time
CDT
Temp
°C
App
Temp
°C
Dew
Point
Rel
Hum
%
Delta-T
°C
Wind Press
QNH
hPa
Press
MSL
hPa
Rain
since 9 am
mm
Dir
 
Spd
km/h
Gust
km/h
Spd
kts
Gust
kts
21/07:00pm 16.7 12.8 13.4 81 1.9 SE 26 32 14 17 1010.9 1010.1 0.0
21/06:30pm 17.7 13.9 13.6 77 2.4 SE 26 30 14 16 1010.9 1010.1 0.0
21/06:00pm 18.4 14.7 12.6 69 3.3 SE 24 32 13 17 1011.3 1010.5 0.0
21/05:30pm 18.3 15.4 14.0 76 2.5 SE 22 28 12 15 1011.5 1010.7 0.0
21/05:00pm 19.2 16.4 14.2 73 2.9 SSE 22 28 12 15 1011.6 1010.8 0.0
21/04:30pm 20.3 17.3 13.7 66 3.9 SSE 22 32 12 17 1011.8 1011.0 0.0
21/04:00pm 23.1 20.5 13.3 54 5.8 SSE 19 26 10 14 1012.1 1011.3 0.0
21/03:30pm 21.4 18.6 13.3 60 4.7 SSE 20 24 11 13 1012.4 1011.6 0.0
21/03:00pm 20.9 18.3 13.8 64 4.2 SSE 20 24 11 13 1012.7 1011.9 0.0
21/02:30pm 20.9 18.4 14.1 65 4.0 SSE 20 24 11 13 1013.0 1012.2 0.0
21/02:00pm 19.6 17.4 14.4 72 3.1 SSE 19 24 10 13 1013.3 1012.5 0.0
21/01:30pm 20.2 18.4 15.4 74 2.9 SSE 19 22 10 12 1013.5 1012.7 0.0
21/01:00pm 20.7 19.1 15.0 70 3.4 SSE 17 20 9 11 1013.8 1013.1 0.0
21/12:30pm 21.3 20.2 15.2 68 3.7 SSE 15 20 8 11 1013.8 1013.1 0.0
21/12:00pm 21.9 20.7 16.0 69 3.6 S 17 22 9 12 1014.0 1013.3 0.0
21/11:30am 21.9 20.4 15.3 66 4.0 SSE 17 19 9 10 1013.9 1013.2 0.0
21/11:00am 23.9 23.5 14.0 54 5.9 S 9 19 5 10 1013.8 1013.1 0.0
21/10:30am 27.0 23.0 4.7 24 11.5 NW 15 24 8 13 1013.3 1012.5 0.0
21/10:00am 27.6 25.3 5.8 25 11.5 NW 7 19 4 10 1012.8 1012.0 0.0
21/09:30am 27.4 25.3 6.8 27 11.1 NW 7 20 4 11 1012.8 1012.0 0.0
21/09:00am 26.8 24.4 6.8 28 10.7 N 9 20 5 11 1012.7 1011.9 0.0
21/08:30am 25.8 24.1 7.4 31 9.9 NE 6 13 3 7 1012.4 1011.6 0.0
21/08:00am 24.9 23.0 7.5 33 9.3 NE 7 17 4 9 1012.3 1011.5 0.0
21/07:30am 23.0 21.9 8.3 39 7.9 NNE 4 7 2 4 1012.2 1011.4 0.0
21/07:00am 19.8 18.8 8.8 49 5.9 W 4 9 2 5 1012.2 1011.4 0.0
21/06:30am 18.1 16.9 8.1 52 5.2 N 4 6 2 3 1012.1 1011.3 0.0
21/06:00am 17.8 17.4 8.1 53 5.0 CALM 0 4 0 2 1011.9 1011.1 0.0
21/05:30am 16.4 15.3 8.4 59 4.1 N 4 6 2 3 1011.9 1011.1 0.0
21/05:00am 15.5 14.5 8.7 64 3.5 N 4 9 2 5 1011.9 1011.1 0.0
21/04:30am 17.0 14.7 8.9 59 4.3 NE 11 19 6 10 1011.8 1011.0 0.0
21/04:00am 17.4 14.7 8.8 57 4.5 NE 13 19 7 10 1012.0 1011.2 0.0
21/03:30am 17.6 13.7 8.7 56 4.7 NE 19 22 10 12 1012.3 1011.5 0.0
21/03:00am 17.3 13.2 8.7 57 4.5 ENE 20 28 11 15 1012.7 1011.9 0.0
21/02:30am 17.4 13.3 8.5 56 4.7 ENE 20 28 11 15 1012.9 1012.1 0.0
21/02:00am 16.8 13.4 9.0 60 4.1 ENE 17 24 9 13 1013.4 1012.6 0.0
21/01:30am 16.9 13.0 9.3 61 4.0 ENE 20 28 11 15 1013.6 1012.9 0.0
21/01:00am 15.0 11.4 10.0 72 2.7 ENE 19 22 10 12 1013.5 1012.7 0.0
21/12:30am 13.5 11.4 12.4 93 0.6 ESE 15 20 8 11 1013.7 1013.0 0.0
21/12:00am 13.3 11.3 12.7 96 0.3 ESE 15 17 8 9 1014.2 1013.4 0.0
 
Date/Time
CDT
Temp
°C
App
Temp
°C
Dew
Point
Rel
Hum
%
Delta-T
°C
Wind Press
QNH
hPa
Press
MSL
hPa
Rain
since 9 am
mm
Dir
 
Spd
km/h
Gust
km/h
Spd
kts
Gust
kts
20/11:30pm 13.3 11.6 12.5 95 0.4 SE 13 17 7 9 1014.6 1013.8 0.0
20/11:00pm 13.4 11.7 12.5 94 0.5 SE 13 17 7 9 1014.8 1014.0 0.0
20/10:30pm 13.6 11.5 12.5 93 0.6 SE 15 20 8 11 1015.0 1014.2 0.0
20/10:00pm 13.6 11.5 12.5 93 0.6 SE 15 19 8 10 1015.3 1014.5 0.0
20/09:30pm 13.5 11.3 12.2 92 0.7 SE 15 19 8 10 1015.6 1014.8 0.0
20/09:00pm 13.8 11.3 12.2 90 0.9 SE 17 20 9 11 1015.7 1014.9 0.0
20/08:30pm 14.3 11.4 12.2 87 1.2 SE 19 24 10 13 1015.6 1014.8 0.0
20/08:00pm 15.1 12.0 12.1 82 1.7 SE 20 26 11 14 1015.5 1014.7 0.0
20/07:30pm 15.8 12.2 11.8 77 2.2 SE 22 26 12 14 1015.5 1014.7 0.0
20/07:00pm 16.6 13.3 11.5 72 2.8 SE 20 26 11 14 1015.4 1014.6 0.0
20/06:30pm 17.4 14.2 11.9 70 3.1 SE 20 24 11 13 1015.4 1014.6 0.0
20/06:00pm 17.8 14.8 11.8 68 3.3 SSE 19 24 10 13 1015.5 1014.7 0.0
20/05:30pm 18.1 15.1 11.9 67 3.5 SE 19 24 10 13 1015.5 1014.7 0.0
20/05:00pm 19.0 15.9 12.3 65 3.8 SE 20 26 11 14 1015.7 1014.9 0.0
20/04:30pm 19.3 16.2 12.3 64 4.0 SE 20 28 11 15 1016.0 1015.2 0.0
20/04:00pm 19.4 16.4 11.9 62 4.2 SSE 19 24 10 13 1016.3 1015.6 0.0
20/03:30pm 21.0 18.1 12.4 58 4.9 SE 19 22 10 12 1016.4 1015.7 0.0
20/03:00pm 20.0 16.9 11.5 58 4.8 SSE 19 24 10 13 1016.8 1016.1 0.0
20/02:30pm 20.8 18.5 11.7 56 5.1 SE 15 24 8 13 1017.3 1016.5 0.0
20/02:00pm 20.0 17.0 11.8 59 4.6 SE 19 28 10 15 1017.8 1017.0 0.0
20/01:30pm 19.3 16.0 11.6 61 4.3 SE 20 28 11 15 1018.0 1017.2 0.0
20/01:00pm 19.2 16.1 11.7 62 4.2 SSE 19 26 10 14 1018.5 1017.7 0.0
20/12:30pm 19.8 16.6 11.8 60 4.5 SE 20 28 11 15 1018.8 1018.1 0.0
20/12:00pm 19.1 15.7 11.4 61 4.3 SE 20 28 11 15 1018.9 1018.2 0.0
20/11:30am 18.9 16.1 11.5 62 4.1 SSE 17 22 9 12 1019.3 1018.6 0.0
20/11:00am 18.8 16.0 11.4 62 4.1 SSE 17 24 9 13 1019.5 1018.8 0.0
20/10:30am 18.4 17.5 10.8 61 4.2 S 6 9 3 5 1019.5 1018.8 0.0
20/10:00am 17.5 15.6 8.9 57 4.5 E 9 13 5 7 1019.8 1019.1 0.0
20/09:30am 17.2 15.9 10.1 63 3.8 E 7 13 4 7 1020.1 1019.4 0.0
20/09:00am 17.0 15.1 10.4 65 3.6 E 11 17 6 9 1020.0 1019.3 0.0
20/08:30am 15.6 13.2 10.2 70 2.9 E 13 19 7 10 1019.9 1019.2 0.0
20/08:00am 14.8 11.7 10.4 75 2.3 E 17 20 9 11 1019.6 1018.9 0.0
20/07:30am 14.1 12.5 10.1 77 2.1 E 9 13 5 7 1019.5 1018.8 0.0
20/07:00am 13.0 11.4 10.2 83 1.5 ESE 9 11 5 6 1019.4 1018.7 0.0
20/06:30am 11.4 10.0 9.7 89 0.9 ESE 7 9 4 5 1019.2 1018.5 0.0
20/06:00am 10.7 9.2 9.1 90 0.8 ESE 7 11 4 6 1018.9 1018.2 0.0
20/05:30am 10.6 9.0 8.7 88 1.0 ESE 7 9 4 5 1018.7 1018.0 0.0
20/05:00am 11.2 8.9 8.9 86 1.2 ESE 11 15 6 8 1018.3 1017.5 0.0
20/04:30am 11.6 8.2 9.3 86 1.2 SE 17 20 9 11 1018.1 1017.3 0.0
20/04:00am 11.3 8.6 9.0 86 1.2 SE 13 17 7 9 1018.2 1017.4 0.0
20/03:30am 11.5 8.4 8.9 84 1.3 SE 15 17 8 9 1018.3 1017.5 0.0
20/03:00am 12.0 9.4 9.2 83 1.4 SE 13 19 7 10 1018.5 1017.7 0.0
20/02:30am 12.4 9.4 9.2 81 1.6 SE 15 20 8 11 1018.8 1018.1 0.0
20/02:00am 13.0 10.0 9.4 79 1.9 SE 15 22 8 12 1019.3 1018.6 0.0
20/01:30am 13.2 10.3 9.5 78 1.9 SE 15 19 8 10 1019.8 1019.1 0.0
20/01:00am 13.4 10.9 9.8 79 1.9 SE 13 20 7 11 1020.2 1019.5 0.0
20/12:30am 13.0 10.4 9.3 78 1.9 SE 13 20 7 11 1020.4 1019.6 0.0
20/12:00am 13.2 10.3 9.6 79 1.9 SE 15 19 8 10 1020.6 1019.8 0.0
 
Date/Time
CDT
Temp
°C
App
Temp
°C
Dew
Point
Rel
Hum
%
Delta-T
°C
Wind Press
QNH
hPa
Press
MSL
hPa
Rain
since 9 am
mm
Dir
 
Spd
km/h
Gust
km/h
Spd
kts
Gust
kts
19/11:30pm 12.8 10.6 9.4 80 1.8 SE 11 17 6 9 1020.9 1020.1 0.0
19/11:00pm 12.7 9.7 9.2 79 1.8 SSE 15 20 8 11 1021.0 1020.2 0.0
19/10:30pm 12.9 9.9 9.4 79 1.8 SSE 15 19 8 10 1021.2 1020.4 0.0
19/10:00pm 13.2 10.3 9.5 78 1.9 SSE 15 20 8 11 1021.2 1020.4 0.0
19/09:30pm 13.2 10.3 9.5 78 1.9 SSE 15 19 8 10 1021.2 1020.4 0.0
19/09:00pm 13.3 9.9 9.2 76 2.1 SSE 17 22 9 12 1021.0 1020.2 0.0
19/08:30pm 13.7 10.0 9.4 75 2.2 SSE 19 24 10 13 1021.1 1020.3 0.0
19/08:00pm 14.0 10.2 9.2 73 2.5 SSE 19 24 10 13 1021.2 1020.4 0.0
19/07:30pm 14.2 10.5 9.4 73 2.5 S 19 28 10 15 1021.1 1020.3 0.0
19/07:00pm 14.4 10.0 9.0 70 2.8 S 22 28 12 15 1020.9 1020.1 0.0
19/06:30pm 14.8 10.8 9.2 69 2.9 S 20 28 11 15 1020.8 1020.0 0.0
19/06:00pm 16.4 12.9 8.6 60 4.0 S 17 24 9 13 1020.6 1019.8 0.0
19/05:30pm 16.5 13.0 8.7 60 4.1 SSW 17 24 9 13 1020.5 1019.7 0.0
19/05:00pm 16.1 12.9 8.6 61 3.9 S 15 22 8 12 1020.5 1019.7 0.0
19/04:30pm 17.0 13.4 8.2 56 4.5 SSE 17 26 9 14 1020.8 1020.0 0.0
19/04:00pm 16.6 12.9 8.1 57 4.4 S 17 26 9 14 1020.7 1019.9 0.0
19/03:30pm 17.1 13.3 9.0 59 4.3 SSE 19 26 10 14 1020.7 1019.9 0.0
19/03:00pm 17.7 13.8 8.8 56 4.7 S 19 26 10 14 1020.8 1020.0 0.0
19/02:30pm 17.6 14.5 9.0 57 4.5 S 15 24 8 13 1020.8 1020.0 0.0
19/02:00pm 17.6 14.5 8.7 56 4.7 S 15 26 8 14 1020.9 1020.1 0.0
19/01:30pm 17.7 13.9 9.1 57 4.5 S 19 26 10 14 1020.9 1020.1 0.0
19/01:00pm 17.3 13.7 8.4 56 4.6 S 17 26 9 14 1021.1 1020.3 0.0
19/12:30pm 15.8 12.6 8.3 61 3.9 S 15 26 8 14 1021.3 1020.6 0.0
19/12:00pm 15.7 12.8 8.2 61 3.8 S 13 20 7 11 1021.3 1020.6 0.0
19/11:30am 15.9 13.3 7.9 59 4.1 SSE 11 20 6 11 1021.2 1020.4 0.0
19/11:00am 15.8 14.0 7.8 59 4.1 SSE 7 11 4 6 1021.2 1020.4 0.0
19/10:30am 15.4 12.1 8.2 62 3.7 S 15 19 8 10 1021.1 1020.3 0.0
19/10:00am 14.4 11.4 7.9 65 3.3 S 13 19 7 10 1021.0 1020.2 0.0
19/09:30am 14.0 10.8 8.6 70 2.8 S 15 22 8 12 1020.7 1019.9 0.0
19/09:00am 13.5 11.7 9.4 76 2.1 S 9 20 5 11 1020.4 1019.6 0.4
19/08:30am 13.4 12.0 8.7 73 2.4 SW 6 9 3 5 1019.9 1019.2 0.4
19/08:00am 12.6 11.1 8.3 75 2.2 SW 6 9 3 5 1019.6 1018.9 0.4
19/07:30am 11.8 10.2 8.1 78 1.8 SW 6 7 3 4 1019.0 1018.3 0.4
19/07:00am 10.9 9.3 8.0 82 1.4 SW 6 7 3 4 1018.7 1018.0 0.4
19/06:30am 10.9 9.3 7.8 81 1.5 SW 6 9 3 5 1018.5 1017.7 0.4
19/06:00am 10.7 8.7 7.2 79 1.7 SW 7 9 4 5 1018.4 1017.6 0.4
19/05:30am 10.5 8.7 7.0 79 1.7 SW 6 9 3 5 1018.1 1017.3 0.4
19/05:00am 10.7 8.6 6.8 77 1.9 SW 7 9 4 5 1018.1 1017.3 0.4
19/04:30am 10.7 8.8 6.6 76 2.0 SW 6 7 3 4 1017.9 1017.1 0.4
19/04:00am 10.6 8.7 6.7 77 1.9 SW 6 7 3 4 1017.7 1016.9 0.4
19/03:30am 10.8 9.4 7.1 78 1.8 SW 4 7 2 4 1017.7 1016.9 0.4
19/03:00am 11.3 9.6 7.4 77 1.9 SW 6 7 3 4 1017.8 1017.0 0.4
19/02:30am 11.7 10.0 7.6 76 2.0 SW 6 9 3 5 1017.9 1017.1 0.4
19/02:00am 12.3 10.4 7.6 73 2.3 SW 7 11 4 6 1017.9 1017.1 0.4
19/01:30am 12.2 10.1 8.1 76 2.0 SSW 9 17 5 9 1017.9 1017.1 0.4
19/01:00am 12.1 10.2 7.4 73 2.3 SSW 7 11 4 6 1018.0 1017.2 0.4
19/12:30am 11.5 9.7 7.2 75 2.1 SSW 6 7 3 4 1017.8 1017.0 0.4
19/12:00am 11.8 10.0 7.3 74 2.2 SSW 6 7 3 4 1017.7 1016.9 0.4
 
Date/Time
CDT
Temp
°C
App
Temp
°C
Dew
Point
Rel
Hum
%
Delta-T
°C
Wind Press
QNH
hPa
Press
MSL
hPa
Rain
since 9 am
mm
Dir
 
Spd
km/h
Gust
km/h
Spd
kts
Gust
kts
18/11:30pm 12.3 9.9 7.0 70 2.6 SW 9 15 5 8 1017.7 1016.9 0.4
18/11:00pm 11.9 9.5 6.8 71 2.5 SSW 9 17 5 9 1017.5 1016.7 0.4
18/10:30pm 11.8 9.3 6.5 70 2.6 SSW 9 13 5 7 1017.5 1016.7 0.4
18/10:00pm 12.3 9.1 7.0 70 2.6 SSW 13 22 7 12 1017.3 1016.5 0.4
18/09:30pm 12.6 9.6 7.9 73 2.3 SSW 13 20 7 11 1016.8 1016.1 0.4
18/09:00pm 12.9 10.0 8.2 73 2.4 SSW 13 20 7 11 1016.6 1015.9 0.4
18/08:30pm 13.4 9.9 8.7 73 2.4 SSW 17 24 9 13 1016.4 1015.7 0.4
18/08:00pm 13.9 10.6 7.9 67 3.0 SSW 15 24 8 13 1016.1 1015.3 0.4
18/07:30pm 14.1 9.7 6.7 61 3.6 SSW 19 30 10 16 1015.6 1014.8 0.4

Other Formats:

Comma delimited format used in spreadsheet applications
http://www.bom.gov.au/fwo/IDS60801/IDS60801.94811.axf

JavaScript Object Notation format (JSON) in row-major order
http://www.bom.gov.au/fwo/IDS60801/IDS60801.94811.json